createdAt,value
2019-03-13T00:00:44.599Z,99004.03
2019-03-13T00:03:20.970Z,99017.05
2019-03-13T00:05:54.798Z,99089.64
2019-03-13T00:08:30.960Z,99119.00
2019-03-13T00:11:06.646Z,99111.34
2019-03-13T00:13:40.353Z,99130.03
2019-03-13T00:16:18.226Z,99139.91
2019-03-13T00:18:51.866Z,99120.20
2019-03-13T00:21:25.610Z,99120.99
2019-03-13T00:23:59.320Z,99136.17
2019-03-13T00:26:33.068Z,99136.78
2019-03-13T00:29:06.823Z,99168.95
2019-03-13T00:31:42.562Z,99181.56
2019-03-13T00:34:16.368Z,99181.56
2019-03-13T00:36:50.459Z,99182.03
2019-03-13T00:39:24.270Z,99171.10
2019-03-13T00:41:59.950Z,99192.20
2019-03-13T00:44:38.003Z,99205.53
2019-03-13T00:47:12.175Z,99214.19
2019-03-13T00:49:46.237Z,99244.80
2019-03-13T00:52:21.261Z,99247.68
2019-03-13T00:54:54.909Z,99249.59
2019-03-13T00:57:29.791Z,99240.81
2019-03-13T01:00:03.605Z,99256.47
2019-03-13T01:02:39.526Z,99267.67
2019-03-13T01:05:21.327Z,99272.05
2019-03-13T01:07:57.274Z,99278.34
2019-03-13T01:10:33.140Z,99283.92
2019-03-13T01:13:06.992Z,99286.11
2019-03-13T01:15:42.184Z,99295.13
2019-03-13T01:18:16.097Z,99294.53
2019-03-13T01:20:50.147Z,99288.77
2019-03-13T01:23:24.930Z,99302.77
2019-03-13T01:26:01.506Z,99305.66
2019-03-13T01:28:35.286Z,99312.91
2019-03-13T01:31:36.646Z,99306.38
2019-03-13T01:34:32.763Z,99300.17
2019-03-13T01:37:06.571Z,99319.27
2019-03-13T01:39:40.332Z,99314.83
2019-03-13T01:42:14.276Z,99317.25
2019-03-13T01:44:49.063Z,99318.99
2019-03-13T01:47:24.564Z,99339.91
2019-03-13T01:49:58.273Z,99335.16
2019-03-13T01:52:32.424Z,99341.56
2019-03-13T01:55:06.722Z,99340.02
2019-03-13T01:57:43.009Z,99339.91
2019-03-13T02:00:18.931Z,99352.48
2019-03-13T02:02:54.801Z,99356.27
2019-03-13T02:05:30.940Z,99351.75
2019-03-13T02:08:04.994Z,99357.05
2019-03-13T02:10:39.783Z,99354.31
2019-03-13T02:13:14.282Z,99353.86
2019-03-13T02:15:48.559Z,99364.17
2019-03-13T02:18:26.322Z,99360.47
2019-03-13T02:21:07.697Z,99366.67
2019-03-13T02:23:42.705Z,99361.45
2019-03-13T02:26:17.983Z,99361.68
2019-03-13T02:28:52.094Z,99364.48
2019-03-13T02:31:25.972Z,99369.16
2019-03-13T02:34:00.077Z,99370.83
2019-03-13T02:36:34.195Z,99358.33
2019-03-13T02:39:09.624Z,99365.38
2019-03-13T02:41:43.555Z,99363.51
2019-03-13T02:44:18.441Z,99362.45
2019-03-13T02:46:52.310Z,99359.50
2019-03-13T02:49:26.474Z,99365.11
2019-03-13T02:52:00.258Z,99371.38
2019-03-13T02:54:33.963Z,99364.72
2019-03-13T02:57:07.711Z,99364.09
2019-03-13T02:59:42.292Z,99352.98
2019-03-13T03:02:33.703Z,99359.77
2019-03-13T03:05:08.174Z,99359.65
2019-03-13T03:07:42.043Z,99357.52
2019-03-13T03:10:15.883Z,99356.23
2019-03-13T03:12:49.506Z,99353.39
2019-03-13T03:15:23.364Z,99357.47
2019-03-13T03:17:59.404Z,99354.58
2019-03-13T03:20:37.935Z,99348.34
2019-03-13T03:23:11.723Z,99341.36
2019-03-13T03:25:46.942Z,99335.64
2019-03-13T03:28:22.862Z,99346.65
2019-03-13T03:30:56.782Z,99334.30
2019-03-13T03:33:30.545Z,99339.26
2019-03-13T03:36:05.279Z,99342.22
2019-03-13T03:38:45.303Z,99346.55
2019-03-13T03:41:18.977Z,99354.86
2019-03-13T03:43:54.195Z,99353.94
2019-03-13T03:46:28.019Z,99350.27
2019-03-13T03:49:02.089Z,99349.94
2019-03-13T03:51:35.795Z,99350.02
2019-03-13T03:54:09.511Z,99354.16
2019-03-13T03:56:44.997Z,99355.23
2019-03-13T03:59:18.844Z,99351.59
2019-03-13T04:01:52.582Z,99363.14
2019-03-13T04:04:26.376Z,99362.57
2019-03-13T04:07:00.104Z,99368.63
2019-03-13T04:09:35.645Z,99374.02
2019-03-13T04:12:09.484Z,99370.41
2019-03-13T04:14:45.093Z,99371.19
2019-03-13T04:17:19.930Z,99363.74
2019-03-13T04:19:53.860Z,99370.33
2019-03-13T04:22:28.788Z,99376.72
2019-03-13T04:25:38.465Z,99370.94
2019-03-13T04:28:12.524Z,99368.08
2019-03-13T04:30:46.609Z,99370.71
2019-03-13T04:33:20.535Z,99368.81
2019-03-13T04:35:54.269Z,99382.86
2019-03-13T04:38:28.032Z,99389.13
2019-03-13T04:41:02.136Z,99378.52
2019-03-13T04:43:35.861Z,99385.02
2019-03-13T04:46:09.462Z,99382.07
2019-03-13T04:48:43.127Z,99384.28
2019-03-13T04:51:16.943Z,99376.20
2019-03-13T04:53:51.914Z,99372.81
2019-03-13T04:56:26.660Z,99374.02
2019-03-13T04:59:01.427Z,99375.89
2019-03-13T05:01:38.348Z,99380.14
2019-03-13T05:04:13.763Z,99375.61
2019-03-13T05:06:47.374Z,99366.93
2019-03-13T05:09:39.112Z,99368.96
2019-03-13T05:12:12.893Z,99371.38
2019-03-13T05:14:46.786Z,99368.53
2019-03-13T05:17:23.660Z,99373.14
2019-03-13T05:19:58.513Z,99373.02
2019-03-13T05:22:34.496Z,99376.91
2019-03-13T05:25:09.535Z,99369.67
2019-03-13T05:27:43.372Z,99369.75
2019-03-13T05:30:19.295Z,99371.42
2019-03-13T05:32:53.118Z,99376.20
2019-03-13T05:35:26.917Z,99373.02
2019-03-13T05:38:01.082Z,99372.70
2019-03-13T05:40:35.349Z,99365.69
2019-03-13T05:43:09.495Z,99356.38
2019-03-13T05:45:44.428Z,99357.77
2019-03-13T05:48:19.943Z,99364.72
2019-03-13T05:50:55.838Z,99356.25
2019-03-13T05:53:30.996Z,99373.35
2019-03-13T05:56:07.835Z,99374.80
2019-03-13T05:58:41.795Z,99365.55
2019-03-13T06:01:17.852Z,99374.41
2019-03-13T06:03:53.082Z,99360.71
2019-03-13T06:06:28.722Z,99361.61
2019-03-13T06:09:03.129Z,99357.75
2019-03-13T06:11:37.316Z,99363.82
2019-03-13T06:14:11.185Z,99353.28
2019-03-13T06:16:45.019Z,99346.42
2019-03-13T06:19:19.781Z,99357.45
2019-03-13T06:21:54.795Z,99364.96
2019-03-13T06:24:28.423Z,99359.95
2019-03-13T06:27:02.257Z,99364.80
2019-03-13T06:29:36.017Z,99349.88
2019-03-13T06:32:11.667Z,99360.09
2019-03-13T06:34:45.332Z,99358.16
2019-03-13T06:37:19.149Z,99321.32
2019-03-13T06:39:52.915Z,99363.12
2019-03-13T06:42:27.127Z,99357.23
2019-03-13T06:45:01.225Z,99361.61
2019-03-13T06:47:35.074Z,99366.52
2019-03-13T06:50:13.376Z,99363.13
2019-03-13T06:52:48.244Z,99363.28
2019-03-13T06:55:21.995Z,99369.01
2019-03-13T06:57:58.033Z,99380.46
2019-03-13T07:00:58.959Z,99370.81
2019-03-13T07:04:04.603Z,99369.30
2019-03-13T07:06:59.172Z,99375.74
2019-03-13T07:09:55.189Z,99383.69
2019-03-13T07:12:51.614Z,99384.04
2019-03-13T07:16:02.467Z,99386.87
2019-03-13T07:18:42.003Z,99384.04
2019-03-13T07:21:39.346Z,99387.60
2019-03-13T07:24:27.789Z,99356.05
2019-03-13T07:27:14.290Z,99371.51
2019-03-13T07:30:03.036Z,99352.99
2019-03-13T07:32:58.537Z,99348.70
2019-03-13T07:35:58.524Z,99346.38
2019-03-13T07:38:56.824Z,99355.53
2019-03-13T07:41:47.808Z,99352.27
2019-03-13T07:44:48.434Z,99343.85
2019-03-13T07:47:45.878Z,99351.96
2019-03-13T07:50:35.545Z,99354.58
2019-03-13T07:53:25.027Z,99355.97
2019-03-13T07:56:17.848Z,99358.30
2019-03-13T07:59:13.864Z,99332.13
2019-03-13T08:02:13.869Z,99353.14
2019-03-13T08:05:05.387Z,99336.12
2019-03-13T08:07:49.223Z,99340.10
2019-03-13T08:10:51.168Z,99342.11
2019-03-13T08:13:42.371Z,99335.77
2019-03-13T08:16:41.156Z,99323.55
2019-03-13T08:19:28.161Z,99333.82
2019-03-13T08:22:29.802Z,99336.96
2019-03-13T08:25:11.391Z,99319.19
2019-03-13T08:28:19.172Z,99324.70
2019-03-13T08:31:17.540Z,99323.28
2019-03-13T08:34:13.145Z,99331.70
2019-03-13T08:37:17.651Z,99318.96
2019-03-13T08:40:10.400Z,99313.53
2019-03-13T08:43:03.028Z,99324.42
2019-03-13T08:45:53.416Z,99314.41
2019-03-13T08:48:57.308Z,99301.31
2019-03-13T08:55:11.545Z,99312.97
2019-03-13T08:58:04.590Z,99296.17
2019-03-13T09:00:44.437Z,99315.81
2019-03-13T09:03:42.807Z,99304.01
2019-03-13T09:06:45.573Z,99303.53
2019-03-13T09:09:39.129Z,99292.48
2019-03-13T09:12:40.878Z,99292.02
2019-03-13T09:15:31.978Z,99283.26
2019-03-13T09:18:27.483Z,99286.56
2019-03-13T09:21:18.910Z,99290.16
2019-03-13T09:24:20.993Z,99282.84
2019-03-13T09:27:19.415Z,99280.20
2019-03-13T09:30:15.450Z,99273.12
2019-03-13T09:33:26.380Z,99269.81
2019-03-13T09:36:34.776Z,99270.91
2019-03-13T09:39:24.452Z,99270.53
2019-03-13T09:42:20.393Z,99268.34
2019-03-13T09:45:20.981Z,99266.83
2019-03-13T09:48:03.896Z,99268.31
2019-03-13T09:50:44.577Z,99261.31
2019-03-13T09:53:37.297Z,99255.67
2019-03-13T09:56:34.742Z,99246.28
2019-03-13T09:59:42.375Z,99252.00
2019-03-13T10:02:23.293Z,99258.91
2019-03-13T10:05:28.110Z,99247.02
2019-03-13T10:08:25.455Z,99253.73
2019-03-13T10:11:11.027Z,99256.21
2019-03-13T10:14:06.586Z,99244.52
2019-03-13T10:17:09.830Z,99257.33
2019-03-13T10:20:07.566Z,99242.05
2019-03-13T10:23:03.788Z,99236.88
2019-03-13T10:26:05.967Z,99237.63
2019-03-13T10:29:01.955Z,99237.88
2019-03-13T10:31:57.463Z,99237.25
2019-03-13T10:34:48.768Z,99235.14
2019-03-13T10:37:40.795Z,99260.88
2019-03-13T10:40:39.625Z,99241.68
2019-03-13T10:43:35.584Z,99247.41
2019-03-13T10:46:29.251Z,99232.93
2019-03-13T10:49:22.181Z,99235.05
2019-03-13T10:52:08.985Z,99248.20
2019-03-13T10:55:00.179Z,99228.03
2019-03-13T10:57:55.899Z,99240.83
2019-03-13T11:00:48.651Z,99207.20
2019-03-13T11:03:33.908Z,99236.69
2019-03-13T11:06:54.045Z,99238.93
2019-03-13T11:09:36.115Z,99230.42
2019-03-13T11:12:17.569Z,99237.42
2019-03-13T11:15:10.072Z,99230.63
2019-03-13T11:18:03.879Z,99227.28
2019-03-13T11:21:13.681Z,99215.00
2019-03-13T11:24:15.323Z,99211.07
2019-03-13T11:30:04.893Z,99227.66
2019-03-13T11:32:57.636Z,99213.19
2019-03-13T11:35:50.933Z,99212.23
2019-03-13T11:38:46.491Z,99203.59
2019-03-13T11:41:39.044Z,99202.89
2019-03-13T11:44:30.541Z,99193.03
2019-03-13T11:47:12.633Z,99199.19
2019-03-13T11:50:00.430Z,99178.04
2019-03-13T11:52:55.872Z,99181.70
2019-03-13T11:55:38.164Z,99180.80
2019-03-13T11:58:20.463Z,99200.98
2019-03-13T12:01:19.242Z,99192.93
2019-03-13T12:04:13.093Z,99212.40
2019-03-13T12:07:03.186Z,99213.25
2019-03-13T12:09:49.169Z,99203.02
2019-03-13T12:12:41.914Z,99203.84
2019-03-13T12:15:26.667Z,99200.17
2019-03-13T12:18:28.166Z,99208.30
2019-03-13T12:21:16.872Z,99200.74
2019-03-13T12:24:15.634Z,99195.40
2019-03-13T12:26:56.818Z,99200.02
2019-03-13T12:29:48.114Z,99200.83
2019-03-13T12:32:44.024Z,99199.99
2019-03-13T12:35:36.765Z,99193.00
2019-03-13T12:38:21.217Z,99189.22
2019-03-13T12:41:12.425Z,99192.25
2019-03-13T12:47:19.084Z,99197.61
2019-03-13T12:50:13.767Z,99200.37
2019-03-13T12:53:09.576Z,99191.72
2019-03-13T12:56:17.359Z,99197.26
2019-03-13T12:58:57.512Z,99181.77
2019-03-13T13:02:02.332Z,99177.03
2019-03-13T13:04:57.935Z,99182.85
2019-03-13T13:07:49.342Z,99179.55
2019-03-13T13:10:40.453Z,99173.97
2019-03-13T13:13:36.560Z,99176.10
2019-03-13T13:16:38.718Z,99160.61
2019-03-13T13:19:12.804Z,99169.56
2019-03-13T13:21:46.875Z,99161.27
2019-03-13T13:24:21.918Z,99157.74
2019-03-13T13:26:55.920Z,99146.70
2019-03-13T13:29:29.902Z,99156.27
2019-03-13T13:32:05.457Z,99152.92
2019-03-13T13:34:39.082Z,99146.27
2019-03-13T13:37:12.698Z,99145.45
2019-03-13T13:39:47.919Z,99133.94
2019-03-13T13:42:23.690Z,99131.45
2019-03-13T13:44:57.458Z,99125.10
2019-03-13T13:47:32.980Z,99138.17
2019-03-13T13:50:08.043Z,99133.52
2019-03-13T13:52:42.975Z,99134.98
2019-03-13T13:55:17.097Z,99118.73
2019-03-13T13:57:52.293Z,99121.66
2019-03-13T14:00:26.044Z,99118.16
2019-03-13T14:02:59.990Z,99119.92
2019-03-13T14:05:34.779Z,99114.93
2019-03-13T14:08:09.742Z,99103.14
2019-03-13T14:10:43.673Z,99105.72
2019-03-13T14:13:18.563Z,99088.97
2019-03-13T14:15:55.494Z,99102.62
2019-03-13T14:18:29.598Z,99099.49
2019-03-13T14:21:03.499Z,99097.55
2019-03-13T14:23:37.339Z,99093.75
2019-03-13T14:26:11.142Z,99091.38
2019-03-13T14:28:45.070Z,99093.06
2019-03-13T14:31:18.728Z,99096.41
2019-03-13T14:33:52.692Z,99085.71
2019-03-13T14:36:26.612Z,99084.81
2019-03-13T14:39:00.528Z,99082.62
2019-03-13T14:41:34.378Z,99077.74
2019-03-13T14:44:08.150Z,99074.70
2019-03-13T14:46:43.790Z,99084.38
2019-03-13T14:49:19.443Z,99082.91
2019-03-13T14:51:53.511Z,99070.64
2019-03-13T14:54:27.215Z,99076.91
2019-03-13T14:57:01.247Z,99077.65
2019-03-13T14:59:34.973Z,99069.93
2019-03-13T15:02:10.737Z,99078.84
2019-03-13T15:04:44.656Z,99087.37
2019-03-13T15:07:19.674Z,99081.22
2019-03-13T15:09:53.418Z,99073.20
2019-03-13T15:12:27.871Z,99061.04
2019-03-13T15:15:01.621Z,99075.59
2019-03-13T15:17:36.749Z,99073.63
2019-03-13T15:20:15.660Z,99074.48
2019-03-13T15:22:49.414Z,99067.58
2019-03-13T15:25:23.355Z,99082.03
2019-03-13T15:27:57.629Z,99083.13
2019-03-13T15:30:31.621Z,99081.47
2019-03-13T15:33:05.720Z,99088.30
2019-03-13T15:35:43.329Z,99072.64
2019-03-13T15:38:18.359Z,99077.17
2019-03-13T15:40:53.617Z,99092.00
2019-03-13T15:43:28.735Z,99083.27
2019-03-13T15:46:02.860Z,99096.34
2019-03-13T15:48:36.652Z,99105.08
2019-03-13T15:51:12.975Z,99094.11
2019-03-13T15:53:48.247Z,99105.70
2019-03-13T15:56:23.125Z,99090.15
2019-03-13T15:58:57.364Z,99086.94
2019-03-13T16:01:31.233Z,99080.59
2019-03-13T16:04:06.779Z,99090.16
2019-03-13T16:06:40.659Z,99085.38
2019-03-13T16:09:14.594Z,99072.58
2019-03-13T16:11:49.177Z,99090.24
2019-03-13T16:14:23.158Z,99092.67
2019-03-13T16:16:59.387Z,99088.98
2019-03-13T16:19:33.572Z,99087.77
2019-03-13T16:22:08.881Z,99088.42
2019-03-13T16:24:43.280Z,99085.56
2019-03-13T16:27:17.500Z,99093.48
2019-03-13T16:29:52.939Z,99090.91
2019-03-13T16:32:26.973Z,99084.61
2019-03-13T16:35:00.984Z,99094.39
2019-03-13T16:37:34.892Z,99085.17
2019-03-13T16:40:10.898Z,99079.45
2019-03-13T16:42:47.413Z,99091.05
2019-03-13T16:45:22.936Z,99073.20
2019-03-13T16:47:56.984Z,99083.84
2019-03-13T16:50:32.523Z,99080.55
2019-03-13T16:53:08.027Z,99079.27
2019-03-13T16:55:41.806Z,99079.89
2019-03-13T16:58:15.895Z,99080.45
2019-03-13T17:00:50.767Z,99088.28
2019-03-13T17:03:24.827Z,99080.16
2019-03-13T17:05:58.953Z,99090.98
2019-03-13T17:08:33.973Z,99072.67
2019-03-13T17:11:09.332Z,99084.82
2019-03-13T17:13:44.853Z,99083.26
2019-03-13T17:16:19.967Z,99082.09
2019-03-13T17:18:53.704Z,99084.72
2019-03-13T17:21:27.530Z,99085.52
2019-03-13T17:24:03.362Z,99087.42
2019-03-13T17:26:37.117Z,99091.59
2019-03-13T17:29:12.732Z,99094.16
2019-03-13T17:31:46.751Z,99086.13
2019-03-13T17:34:20.499Z,99086.42
2019-03-13T17:36:55.444Z,99089.84
2019-03-13T17:39:29.381Z,99081.59
2019-03-13T17:42:03.263Z,99089.61
2019-03-13T17:44:37.244Z,99084.02
2019-03-13T17:47:10.955Z,99086.22
2019-03-13T17:49:44.734Z,99087.80
2019-03-13T17:52:20.290Z,99082.09
2019-03-13T17:54:53.926Z,99082.17
2019-03-13T17:57:27.736Z,99085.31
2019-03-13T18:00:02.629Z,99076.80
2019-03-13T18:02:36.831Z,99082.73
2019-03-13T18:05:10.943Z,99077.50
2019-03-13T18:07:44.896Z,99081.30
2019-03-13T18:10:19.868Z,99077.30
2019-03-13T18:12:55.766Z,99082.62
2019-03-13T18:15:29.642Z,99078.31
2019-03-13T18:18:04.858Z,99080.95
2019-03-13T18:20:40.407Z,99080.25
2019-03-13T18:23:14.603Z,99073.00
2019-03-13T18:25:49.714Z,99073.44
2019-03-13T18:28:23.718Z,99078.26
2019-03-13T18:30:57.890Z,99077.97
2019-03-13T18:33:35.845Z,99081.09
2019-03-13T18:36:13.955Z,99085.78
2019-03-13T18:38:50.427Z,99081.01
2019-03-13T18:41:24.702Z,99077.23
2019-03-13T18:43:59.351Z,99091.45
2019-03-13T18:46:33.106Z,99082.80
2019-03-13T18:49:06.945Z,99080.13
2019-03-13T18:51:40.755Z,99076.63
2019-03-13T18:54:14.572Z,99092.41
2019-03-13T18:56:48.628Z,99092.41
2019-03-13T18:59:23.777Z,99094.89
2019-03-13T19:01:59.434Z,99086.36
2019-03-13T19:04:36.248Z,99090.83
2019-03-13T19:07:12.547Z,99104.25
2019-03-13T19:09:46.922Z,99100.36
2019-03-13T19:12:20.959Z,99092.08
2019-03-13T19:14:59.493Z,99103.88
2019-03-13T19:17:33.616Z,99104.61
2019-03-13T19:20:11.761Z,99108.47
2019-03-13T19:22:44.795Z,99109.67
2019-03-13T19:25:20.816Z,99116.48
2019-03-13T19:27:54.880Z,99106.58
2019-03-13T19:30:30.581Z,99114.08
2019-03-13T19:33:05.073Z,99104.44
2019-03-13T19:35:40.036Z,99104.56
2019-03-13T19:38:14.051Z,99103.63
2019-03-13T19:40:48.848Z,99106.88
2019-03-13T19:43:24.663Z,99095.56
2019-03-13T19:45:59.524Z,99096.50
2019-03-13T19:48:33.899Z,99095.16
2019-03-13T19:51:08.354Z,99100.56
2019-03-13T19:53:44.531Z,99100.56
2019-03-13T19:56:21.725Z,99101.30
2019-03-13T19:58:57.747Z,99105.57
2019-03-13T20:01:33.813Z,99102.67
2019-03-13T20:04:09.378Z,99111.09
2019-03-13T20:06:43.590Z,99108.55
2019-03-13T20:09:17.758Z,99121.44
2019-03-13T20:11:52.011Z,99122.34
2019-03-13T20:14:27.353Z,99123.16
2019-03-13T20:17:01.228Z,99130.06
2019-03-13T20:19:35.055Z,99137.52
2019-03-13T20:22:12.310Z,99138.72
2019-03-13T20:24:47.499Z,99149.05
2019-03-13T20:27:21.996Z,99146.85
2019-03-13T20:29:57.278Z,99142.81
2019-03-13T20:32:33.091Z,99135.08
2019-03-13T20:35:07.751Z,99132.78
2019-03-13T20:37:41.696Z,99145.88
2019-03-13T20:40:19.573Z,99133.50
2019-03-13T20:42:53.315Z,99145.67
2019-03-13T20:45:27.884Z,99143.77
2019-03-13T20:48:03.475Z,99141.77
2019-03-13T20:50:38.228Z,99149.13
2019-03-13T20:53:12.766Z,99154.91
2019-03-13T20:55:46.690Z,99152.01
2019-03-13T20:58:21.073Z,99149.50
2019-03-13T21:00:56.356Z,99166.59
2019-03-13T21:03:31.620Z,99156.55
2019-03-13T21:06:05.888Z,99161.64
2019-03-13T21:08:40.858Z,99164.59
2019-03-13T21:11:15.659Z,99174.91
2019-03-13T21:13:49.580Z,99177.01
2019-03-13T21:16:24.652Z,99178.56
2019-03-13T21:18:58.966Z,99185.36
2019-03-13T21:21:33.359Z,99192.00
2019-03-13T21:24:07.436Z,99191.80
2019-03-13T21:26:42.095Z,99196.98
2019-03-13T21:29:15.833Z,99197.36
2019-03-13T21:31:49.895Z,99198.27
2019-03-13T21:34:24.756Z,99201.48
2019-03-13T21:36:59.700Z,99206.28
2019-03-13T21:39:33.875Z,99203.09
2019-03-13T21:42:07.776Z,99206.78
2019-03-13T21:44:43.110Z,99210.77
2019-03-13T21:47:16.770Z,99220.59
2019-03-13T21:49:50.771Z,99216.94
2019-03-13T21:52:26.356Z,99236.55
2019-03-13T21:55:00.489Z,99224.93
2019-03-13T21:57:34.807Z,99223.27
2019-03-13T22:00:21.713Z,99216.53
2019-03-13T22:02:55.950Z,99230.47
2019-03-13T22:05:31.232Z,99244.52
2019-03-13T22:08:05.278Z,99244.42
2019-03-13T22:10:39.330Z,99245.51
2019-03-13T22:13:13.273Z,99256.72
2019-03-13T22:15:47.093Z,99248.73
2019-03-13T22:18:21.095Z,99255.77
2019-03-13T22:20:55.071Z,99270.76
2019-03-13T22:23:30.757Z,99270.29
2019-03-13T22:26:04.480Z,99277.91
2019-03-13T22:28:38.240Z,99279.70
2019-03-13T22:31:12.004Z,99287.63
2019-03-13T22:33:46.111Z,99285.13
2019-03-13T22:36:19.840Z,99290.02
2019-03-13T22:38:53.941Z,99297.75
2019-03-13T22:41:27.549Z,99299.47
2019-03-13T22:44:01.995Z,99313.00
2019-03-13T22:46:36.969Z,99314.53
2019-03-13T22:49:10.744Z,99321.58
2019-03-13T22:51:44.539Z,99325.83
2019-03-13T22:54:20.252Z,99329.02
2019-03-13T22:56:55.622Z,99333.81
2019-03-13T22:59:29.386Z,99337.97
2019-03-13T23:02:03.333Z,99345.48
2019-03-13T23:04:38.664Z,99333.16
2019-03-13T23:07:12.380Z,99351.34
2019-03-13T23:09:46.235Z,99347.53
2019-03-13T23:12:20.309Z,99345.50
2019-03-13T23:14:54.454Z,99350.86
2019-03-13T23:17:28.190Z,99343.82
2019-03-13T23:20:02.056Z,99353.28
2019-03-13T23:22:37.851Z,99361.67
2019-03-13T23:25:11.568Z,99358.73
2019-03-13T23:27:45.312Z,99352.59
2019-03-13T23:30:20.586Z,99357.83
2019-03-13T23:32:54.287Z,99356.33
2019-03-13T23:35:28.187Z,99365.09
2019-03-13T23:38:02.057Z,99367.61
2019-03-13T23:40:35.926Z,99373.50
2019-03-13T23:43:09.696Z,99365.64
2019-03-13T23:45:45.178Z,99382.73
2019-03-13T23:48:20.344Z,99378.78
2019-03-13T23:50:54.227Z,99382.95
2019-03-13T23:53:27.950Z,99388.64
2019-03-13T23:56:02.769Z,99399.01
2019-03-13T23:58:36.533Z,99401.52
